.
WxDataArchive / Data Records for 2013-08-08
2013-08-07 August 2013 2013-08-09

Data Records for Thursday, 08 August 2013

Time	Temp	Chill	HIndex	Humid	Dewpt	 Wind 	HiWind	WindDir	Rain 	Barom 
-----	----	-----	------	-----	-----	------	------	-------	-----	----- 
00:00	73.0	73.0	73.0	89	69.6	0	0	---	0.00	29.871 
00:05	72.8	72.8	72.8	89	69.4	0	0	---	0.00	29.871 
00:10	72.7	72.7	72.7	89	69.3	0	0	---	0.00	29.871 
00:15	72.5	72.5	72.5	90	69.4	0	0	---	0.00	29.865 
00:20	72.3	72.3	72.3	90	69.2	0	0	---	0.00	29.865 
00:25	72.1	72.1	72.1	90	69.0	0	0	---	0.00	29.865 
00:30	72.0	72.0	72.0	90	68.9	0	0	---	0.00	29.873 
00:35	71.8	71.8	71.8	90	68.7	0	0	---	0.00	29.873 
00:40	71.6	71.6	71.6	90	68.5	0	0	---	0.00	29.873 
00:45	71.6	71.6	71.6	90	68.5	0	0	---	0.00	29.879 
00:50	71.5	71.5	71.5	90	68.4	0	0	---	0.00	29.879 
00:55	71.5	71.5	71.5	90	68.4	0	0	---	0.00	29.879 
01:00	71.3	71.3	71.3	91	68.5	0	0	---	0.00	29.883 
01:05	70.9	70.9	70.9	90	67.8	0	0	---	0.00	29.883 
01:10	70.8	70.8	70.8	90	67.7	0	0	---	0.00	29.883 
01:15	70.9	70.9	70.9	90	67.8	0	0	---	0.00	29.883 
01:20	70.9	70.9	70.9	89	67.5	0	0	---	0.00	29.883 
01:25	70.9	70.9	70.9	89	67.5	0	0	---	0.00	29.883 
01:30	70.9	70.9	70.9	88	67.2	0	0	---	0.00	29.885 
01:35	70.8	70.8	70.8	88	67.1	0	0	---	0.00	29.885 
01:40	70.8	70.8	70.8	88	67.1	0	0	---	0.00	29.885 
01:45	70.8	70.8	70.8	88	67.1	0	0	---	0.00	29.888 
01:50	70.8	70.8	70.8	88	67.1	0	0	---	0.00	29.888 
01:55	70.8	70.8	70.8	87	66.7	0	0	---	0.00	29.888 
02:00	70.8	70.8	70.8	87	66.7	0	0	---	0.00	29.884 
02:05	70.6	70.6	70.6	87	66.5	0	0	---	0.00	29.884 
02:10	70.6	70.6	70.6	87	66.5	0	0	---	0.00	29.884 
02:15	70.6	70.6	70.6	87	66.5	0	0	---	0.00	29.887 
02:20	70.6	70.6	70.6	88	66.9	0	0	---	0.00	29.887 
02:25	70.6	70.6	70.6	88	66.9	0	0	---	0.00	29.887 
02:30	70.6	70.6	70.6	88	66.9	0	0	---	0.00	29.882 
02:35	70.6	70.6	70.6	88	66.9	0	0	---	0.00	29.882 
02:40	70.6	70.6	70.6	88	66.9	0	0	---	0.00	29.882 
02:45	70.6	70.6	70.6	88	66.9	0	0	---	0.00	29.880 
02:50	70.4	70.4	70.4	88	66.7	0	0	---	0.00	29.880 
02:55	70.4	70.4	70.4	89	67.0	0	0	---	0.00	29.880 
03:00	70.4	70.4	70.4	89	67.0	0	0	---	0.00	29.882 
03:05	70.6	70.6	70.6	89	67.2	0	0	---	0.00	29.882 
03:10	70.6	70.6	70.6	89	67.2	0	0	---	0.00	29.882 
03:15	70.8	70.8	70.8	89	67.4	0	0	---	0.00	29.880 
03:20	70.8	70.8	70.8	89	67.4	0	0	---	0.00	29.880 
03:25	70.6	70.6	70.6	89	67.2	0	0	---	0.00	29.880 
03:30	70.6	70.6	70.6	89	67.2	0	0	---	0.00	29.879 
03:35	70.6	70.6	70.6	89	67.2	0	0	---	0.00	29.879 
03:40	70.4	70.4	70.4	89	67.0	0	0	---	0.00	29.879 
03:45	70.4	70.4	70.4	89	67.0	0	0	---	0.00	29.877 
03:50	70.4	70.4	70.4	90	67.3	0	0	---	0.00	29.877 
03:55	70.4	70.4	70.4	89	67.0	0	0	---	0.00	29.877 
04:00	70.4	70.4	70.4	89	67.0	0	0	---	0.00	29.878 
04:05	70.4	70.4	70.4	90	67.3	0	0	---	0.00	29.878 
04:10	70.4	70.4	70.4	90	67.3	0	0	---	0.00	29.878 
04:15	70.4	70.4	70.4	90	67.3	0	0	---	0.00	29.881 
04:20	70.4	70.4	70.4	89	67.0	0	0	---	0.00	29.881 
04:25	70.6	70.6	70.6	89	67.2	0	0	---	0.00	29.881 
04:30	70.6	70.6	70.6	89	67.2	0	0	---	0.00	29.883 
04:35	70.4	70.4	70.4	89	67.0	0	0	---	0.00	29.883 
04:40	70.4	70.4	70.4	89	67.0	0	0	---	0.00	29.883 
04:45	70.4	70.4	70.4	89	67.0	0	0	---	0.00	29.886 
04:50	70.4	70.4	70.4	89	67.0	0	0	---	0.00	29.886 
04:55	70.4	70.4	70.4	89	67.0	0	0	---	0.00	29.886 
05:00	70.4	70.4	70.4	89	67.0	0	0	---	0.00	29.894 
05:05	70.4	70.4	70.4	89	67.0	0	0	---	0.00	29.894 
05:10	70.4	70.4	70.4	89	67.0	0	0	---	0.00	29.894 
05:15	70.4	70.4	70.4	89	67.0	0	0	---	0.00	29.898 
05:20	70.6	70.6	70.6	89	67.2	0	0	---	0.00	29.898 
05:25	70.6	70.6	70.6	89	67.2	0	0	---	0.00	29.898 
05:30	70.6	70.6	70.6	89	67.2	0	0	---	0.00	29.897 
05:35	70.6	70.6	70.6	88	66.9	0	0	---	0.00	29.897 
05:40	70.4	70.4	70.4	88	66.7	0	0	---	0.00	29.897 
05:45	70.4	70.4	70.4	88	66.7	0	0	---	0.00	29.898 
05:50	70.3	70.3	70.3	88	66.6	0	0	---	0.00	29.898 
05:55	70.3	70.3	70.3	88	66.6	0	0	---	0.00	29.898 
06:00	70.1	70.1	70.1	88	66.4	0	0	---	0.00	29.900 
06:05	69.9	69.9	69.9	89	66.5	0	0	---	0.00	29.900 
06:10	69.9	69.9	69.9	89	66.5	0	0	---	0.00	29.900 
06:15	69.8	69.8	69.8	89	66.4	0	0	---	0.00	29.904 
06:20	69.8	69.8	69.8	89	66.4	0	0	---	0.00	29.904 
06:25	69.8	69.8	69.8	89	66.4	0	0	---	0.00	29.904 
06:30	69.8	69.8	69.8	89	66.4	0	0	---	0.00	29.906 
06:35	69.8	69.8	69.8	89	66.4	0	0	---	0.00	29.906 
06:40	69.8	69.8	69.8	89	66.4	0	0	---	0.00	29.906 
06:45	69.8	69.8	69.8	89	66.4	0	0	---	0.00	29.901 
06:50	69.8	69.8	69.8	89	66.4	0	0	---	0.00	29.901 
06:55	69.6	69.6	69.6	89	66.2	0	0	---	0.00	29.901 
07:00	69.6	69.6	69.6	89	66.2	0	0	---	0.00	29.898 
07:05	69.6	69.6	69.6	89	66.2	0	0	---	0.00	29.898 
07:10	69.4	69.4	69.4	89	66.0	0	0	---	0.00	29.898 
07:15	69.4	69.4	69.4	88	65.7	0	0	---	0.00	29.905 
07:20	69.4	69.4	69.4	88	65.7	0	0	---	0.00	29.905 
07:25	69.4	69.4	69.4	88	65.7	0	0	---	0.00	29.905 
07:30	69.4	69.4	69.4	88	65.7	0	0	---	0.00	29.911 
07:35	69.4	69.4	69.4	88	65.7	0	0	---	0.00	29.911 
07:40	69.3	69.3	69.3	87	65.3	0	0	---	0.00	29.911 
07:45	69.3	69.3	69.3	87	65.3	0	0	---	0.00	29.904 
07:50	69.3	69.3	69.3	87	65.3	0	0	---	0.00	29.904 
07:55	69.3	69.3	69.3	87	65.3	0	0	---	0.00	29.904 
08:00	69.3	69.3	69.3	87	65.3	0	0	---	0.00	29.914 
08:05	69.3	69.3	69.3	86	64.9	0	0	---	0.00	29.914 
08:10	69.4	69.4	69.4	86	65.0	0	0	---	0.00	29.914 
08:15	69.6	69.6	69.6	85	64.9	0	0	---	0.00	29.916 
08:20	69.8	69.8	69.8	85	65.1	0	0	---	0.00	29.916 
08:25	69.9	69.9	69.9	84	64.8	0	0	---	0.00	29.916 
08:30	69.8	69.8	69.8	84	64.7	0	0	---	0.00	29.916 
08:35	69.9	69.9	69.9	84	64.8	0	0	---	0.00	29.916 
08:40	70.3	70.3	70.3	84	65.2	0	0	---	0.00	29.916 
08:45	70.4	70.4	70.4	83	65.0	0	0	---	0.00	29.916 
08:50	70.6	70.6	70.6	83	65.2	0	0	---	0.00	29.916 
08:55	70.6	70.6	70.6	82	64.8	0	4	112	0.00	29.916 
09:00	70.6	70.6	70.6	82	64.8	2	5	112	0.00	29.914 
09:05	70.3	70.3	70.3	82	64.5	2	7	112	0.00	29.914 
09:10	70.3	70.3	70.3	83	64.9	1	4	112	0.00	29.914 
09:15	70.1	70.1	70.1	83	64.7	2	5	112	0.00	29.922 
09:20	70.3	70.3	70.3	83	64.9	1	4	90	0.00	29.922 
09:25	70.3	70.3	70.3	83	64.9	1	4	90	0.00	29.922 
09:30	70.3	70.3	70.3	83	64.9	1	6	112	0.00	29.925 
09:35	70.4	70.4	70.4	82	64.6	2	6	112	0.00	29.925 
09:40	70.4	70.4	70.4	82	64.6	2	6	112	0.00	29.925 
09:45	70.8	70.8	70.8	81	64.7	2	5	112	0.00	29.928 
09:50	71.1	71.1	71.1	80	64.6	3	7	90	0.00	29.928 
09:55	71.6	71.6	71.6	80	65.1	2	7	112	0.00	29.928 
10:00	72.0	72.0	72.0	79	65.1	3	6	112	0.00	29.932 
10:05	72.3	72.3	72.3	79	65.4	2	4	90	0.00	29.932 
10:10	72.7	72.7	72.7	78	65.4	2	5	112	0.00	29.932 
10:15	72.5	72.5	72.5	78	65.2	2	7	112	0.00	29.947 
10:20	72.3	72.3	72.3	79	65.4	2	5	90	0.00	29.947 
10:25	72.1	72.1	72.1	79	65.2	2	6	90	0.00	29.947 
10:30	72.1	72.1	72.1	79	65.2	1	3	90	0.00	29.958 
10:35	72.0	72.0	72.0	80	65.5	2	5	90	0.00	29.958 
10:40	72.0	72.0	72.0	80	65.5	2	5	112	0.00	29.958 
10:45	72.0	72.0	72.0	80	65.5	1	4	112	0.00	29.964 
10:50	71.8	71.8	71.8	80	65.3	1	5	112	0.00	29.964 
10:55	71.8	71.8	71.8	80	65.3	1	4	112	0.00	29.964 
11:00	71.8	71.8	71.8	81	65.6	1	4	112	0.00	29.967 
11:05	71.8	71.8	71.8	81	65.6	0	3	112	0.00	29.967 
11:10	71.8	71.8	71.8	81	65.6	1	4	112	0.00	29.967 
11:15	71.6	71.6	71.6	81	65.4	1	4	112	0.00	29.967 
11:20	71.8	71.8	71.8	81	65.6	1	4	112	0.00	29.967 
11:25	71.6	71.6	71.6	81	65.4	2	5	112	0.00	29.967 
11:30	71.6	71.6	71.6	81	65.4	1	3	90	0.00	29.966 
11:35	71.6	71.6	71.6	81	65.4	2	5	90	0.00	29.966 
11:40	71.6	71.6	71.6	81	65.4	3	5	90	0.00	29.966 
11:45	71.6	71.6	71.6	81	65.4	1	3	90	0.00	29.965 
11:50	71.5	71.5	71.5	81	65.4	1	4	90	0.00	29.965 
11:55	71.5	71.5	71.5	81	65.4	2	4	90	0.00	29.965 
12:00	71.5	71.5	71.5	82	65.7	1	4	90	0.00	29.963 
12:05	71.5	71.5	71.5	82	65.7	1	4	90	0.00	29.963 
12:10	71.6	71.6	71.6	82	65.8	1	4	90	0.00	29.963 
12:15	71.6	71.6	71.6	82	65.8	3	6	112	0.00	29.965 
12:20	71.8	71.8	71.8	81	65.6	2	5	90	0.00	29.965 
12:25	72.0	72.0	72.0	82	66.2	1	3	90	0.00	29.965 
12:30	72.3	72.3	72.3	82	66.5	1	5	90	0.00	29.958 
12:35	72.5	72.5	72.5	81	66.3	3	6	90	0.00	29.958 
12:40	73.2	73.2	73.2	81	67.0	3	7	90	0.00	29.958 
12:45	73.7	73.7	73.7	79	66.8	3	9	90	0.00	29.950 
12:50	73.7	73.7	73.7	79	66.8	4	8	90	0.00	29.950 
12:55	73.7	73.7	73.7	79	66.8	2	6	112	0.00	29.950 
13:00	73.7	73.7	73.7	80	67.1	2	5	90	0.00	29.951 
13:05	73.7	73.7	73.7	79	66.8	1	4	90	0.00	29.951 
13:10	73.7	73.7	73.7	80	67.1	1	4	90	0.00	29.951 
13:15	73.9	73.9	73.9	80	67.3	1	3	90	0.00	29.953 
13:20	73.7	73.7	73.7	79	66.8	3	6	90	0.00	29.953 
13:25	73.5	73.5	73.5	80	66.9	1	5	90	0.00	29.953 
13:30	73.2	73.2	73.2	81	67.0	1	4	90	0.00	29.953 
13:35	73.0	73.0	73.0	81	66.8	1	5	90	0.00	29.953 
13:40	72.8	72.8	72.8	81	66.6	1	4	90	0.00	29.953 
13:45	72.7	72.7	72.7	81	66.5	2	5	90	0.00	29.949 
13:50	72.7	72.7	72.7	82	66.9	2	6	90	0.00	29.949 
13:55	72.8	72.8	72.8	82	67.0	0	3	90	0.00	29.949 
14:00	73.0	73.0	73.0	81	66.8	1	4	90	0.00	29.943 
14:05	73.0	73.0	73.0	81	66.8	2	5	112	0.00	29.943 
14:10	73.2	73.2	73.2	81	67.0	1	4	112	0.00	29.943 
14:15	73.3	73.3	73.3	81	67.1	1	4	112	0.00	29.944 
14:20	73.5	73.5	73.5	80	66.9	1	3	112	0.00	29.944 
14:25	73.7	73.7	73.7	81	67.5	0	2	112	0.00	29.944 
14:30	73.7	73.7	73.7	81	67.5	1	4	112	0.00	29.949 
14:35	73.7	73.7	73.7	81	67.5	1	3	112	0.00	29.949 
14:40	73.9	73.9	73.9	79	67.0	1	4	112	0.00	29.949 
14:45	73.9	73.9	73.9	79	67.0	2	4	112	0.00	29.942 
14:50	73.9	73.9	73.9	79	67.0	1	5	112	0.00	29.942 
14:55	74.0	74.0	74.0	80	67.4	1	5	112	0.00	29.942 
15:00	74.0	74.0	74.0	80	67.4	1	4	112	0.00	29.939 
15:05	74.0	74.0	74.0	79	67.1	1	3	112	0.00	29.939 
15:10	73.7	73.7	73.7	80	67.1	1	3	112	0.00	29.939 
15:15	73.7	73.7	73.7	80	67.1	0	2	112	0.00	29.937 
15:20	73.5	73.5	73.5	81	67.3	1	3	112	0.00	29.937 
15:25	73.5	73.5	73.5	81	67.3	0	2	112	0.00	29.937 
15:30	73.5	73.5	73.5	81	67.3	1	2	112	0.00	29.936 
15:35	73.3	73.3	73.3	81	67.1	0	2	112	0.00	29.936 
15:40	73.3	73.3	73.3	81	67.1	0	2	112	0.00	29.936 
15:45	73.3	73.3	73.3	82	67.5	0	2	112	0.00	29.935 
15:50	73.5	73.5	73.5	81	67.3	0	2	112	0.00	29.935 
15:55	73.5	73.5	73.5	82	67.7	0	2	112	0.00	29.935 
16:00	73.3	73.3	73.3	81	67.1	1	4	112	0.00	29.925 
16:05	73.3	73.3	73.3	82	67.5	1	3	112	0.00	29.925 
16:10	73.5	73.5	73.5	82	67.7	1	4	112	0.00	29.925 
16:15	73.3	73.3	73.3	81	67.1	2	5	112	0.00	29.921 
16:20	73.3	73.3	73.3	82	67.5	1	4	112	0.00	29.921 
16:25	73.2	73.2	73.2	82	67.4	1	3	90	0.00	29.921 
16:30	73.0	73.0	73.0	82	67.2	1	3	90	0.00	29.930 
16:35	73.0	73.0	73.0	83	67.5	1	3	90	0.00	29.930 
16:40	72.8	72.8	72.8	83	67.3	1	3	90	0.00	29.930 
16:45	72.8	72.8	72.8	84	67.7	1	3	90	0.00	29.922 
16:50	72.7	72.7	72.7	83	67.2	1	3	90	0.00	29.922 
16:55	72.7	72.7	72.7	83	67.2	0	2	90	0.00	29.922 
17:00	72.8	72.8	72.8	83	67.3	0	2	90	0.00	29.922 
17:05	73.0	73.0	73.0	82	67.2	1	3	90	0.00	29.922 
17:10	73.2	73.2	73.2	82	67.4	0	2	90	0.00	29.922 
17:15	73.3	73.3	73.3	82	67.5	0	2	90	0.00	29.921 
17:20	73.7	73.7	73.7	82	67.9	1	3	90	0.00	29.921 
17:25	73.7	73.7	73.7	81	67.5	1	3	90	0.00	29.921 
17:30	73.7	73.7	73.7	81	67.5	2	6	90	0.00	29.913 
17:35	73.9	73.9	73.9	81	67.7	1	5	90	0.00	29.913 
17:40	73.9	73.9	73.9	81	67.7	1	4	90	0.00	29.913 
17:45	73.9	73.9	73.9	81	67.7	1	3	90	0.00	29.921 
17:50	73.9	73.9	73.9	81	67.7	1	2	90	0.00	29.921 
17:55	73.7	73.7	73.7	81	67.5	1	3	90	0.00	29.921 
18:00	73.7	73.7	73.7	81	67.5	1	4	90	0.00	29.923 
18:05	73.5	73.5	73.5	81	67.3	2	5	68	0.00	29.923 
18:10	73.3	73.3	73.3	81	67.1	2	5	90	0.00	29.923 
18:15	73.2	73.2	73.2	81	67.0	1	3	90	0.00	29.934 
18:20	73.2	73.2	73.2	81	67.0	1	3	90	0.00	29.934 
18:25	73.2	73.2	73.2	81	67.0	0	2	90	0.00	29.934 
18:30	73.2	73.2	73.2	81	67.0	1	3	90	0.00	29.933 
18:35	73.3	73.3	73.3	81	67.1	1	3	90	0.00	29.933 
18:40	73.3	73.3	73.3	81	67.1	1	5	90	0.00	29.933 
18:45	73.3	73.3	73.3	81	67.1	1	3	90	0.00	29.924 
18:50	73.5	73.5	73.5	81	67.3	0	3	90	0.00	29.924 
18:55	73.3	73.3	73.3	81	67.1	2	4	90	0.00	29.924 
19:00	73.2	73.2	73.2	81	67.0	2	5	90	0.00	29.921 
19:05	73.2	73.2	73.2	81	67.0	1	4	90	0.00	29.921 
19:10	73.0	73.0	73.0	81	66.8	2	6	90	0.00	29.921 
19:15	73.0	73.0	73.0	81	66.8	1	5	90	0.00	29.921 
19:20	73.0	73.0	73.0	81	66.8	1	3	90	0.00	29.921 
19:25	73.0	73.0	73.0	81	66.8	1	3	90	0.00	29.921 
19:30	73.0	73.0	73.0	81	66.8	1	4	90	0.00	29.918 
19:35	73.2	73.2	73.2	81	67.0	1	3	90	0.00	29.918 
19:40	73.2	73.2	73.2	81	67.0	1	3	90	0.00	29.918 
19:45	73.0	73.0	73.0	81	66.8	1	4	90	0.00	29.922 
19:50	73.0	73.0	73.0	82	67.2	0	3	90	0.00	29.922 
19:55	73.0	73.0	73.0	82	67.2	0	2	90	0.00	29.922 
20:00	73.0	73.0	73.0	82	67.2	0	2	90	0.00	29.921 
20:05	72.8	72.8	72.8	81	66.6	0	1	90	0.00	29.921 
20:10	72.8	72.8	72.8	81	66.6	1	3	90	0.00	29.921 
20:15	72.7	72.7	72.7	82	66.9	0	3	90	0.00	29.919 
20:20	72.7	72.7	72.7	82	66.9	0	3	90	0.00	29.919 
20:25	72.5	72.5	72.5	82	66.7	1	3	90	0.00	29.919 
20:30	72.5	72.5	72.5	82	66.7	1	4	90	0.00	29.917 
20:35	72.5	72.5	72.5	82	66.7	0	2	90	0.00	29.917 
20:40	72.3	72.3	72.3	82	66.5	1	4	90	0.00	29.917 
20:45	72.3	72.3	72.3	83	66.8	0	1	90	0.00	29.921 
20:50	72.1	72.1	72.1	83	66.6	0	1	90	0.00	29.921 
20:55	72.1	72.1	72.1	83	66.6	0	1	90	0.00	29.921 
21:00	72.1	72.1	72.1	83	66.6	0	1	90	0.00	29.924 
21:05	72.0	72.0	72.0	84	66.9	0	0	---	0.00	29.924 
21:10	72.0	72.0	72.0	84	66.9	0	0	---	0.00	29.924 
21:15	71.8	71.8	71.8	84	66.7	0	2	90	0.00	29.928 
21:20	71.8	71.8	71.8	84	66.7	0	1	90	0.00	29.928 
21:25	71.8	71.8	71.8	84	66.7	0	0	---	0.00	29.928 
21:30	71.8	71.8	71.8	84	66.7	0	0	---	0.00	29.926 
21:35	71.8	71.8	71.8	84	66.7	0	0	---	0.00	29.926 
21:40	71.6	71.6	71.6	85	66.8	0	0	---	0.00	29.926 
21:45	71.6	71.6	71.6	85	66.8	0	0	---	0.00	29.931 
21:50	71.5	71.5	71.5	85	66.7	0	0	---	0.00	29.931 
21:55	71.5	71.5	71.5	85	66.7	0	0	---	0.00	29.931 
22:00	71.5	71.5	71.5	85	66.7	0	0	---	0.00	29.935 
22:05	71.5	71.5	71.5	86	67.1	0	0	---	0.00	29.935 
22:10	71.3	71.3	71.3	86	66.9	0	1	90	0.00	29.935 
22:15	71.3	71.3	71.3	86	66.9	0	0	---	0.00	29.939 
22:20	71.3	71.3	71.3	86	66.9	0	0	---	0.00	29.939 
22:25	71.3	71.3	71.3	86	66.9	0	0	---	0.00	29.939 
22:30	71.1	71.1	71.1	86	66.7	0	0	---	0.00	29.939 
22:35	71.1	71.1	71.1	86	66.7	0	0	---	0.00	29.939 
22:40	71.1	71.1	71.1	86	66.7	0	0	---	0.00	29.939 
22:45	71.1	71.1	71.1	86	66.7	0	0	---	0.00	29.944 
22:50	70.9	70.9	70.9	86	66.5	0	0	---	0.00	29.944 
22:55	70.9	70.9	70.9	86	66.5	0	0	---	0.00	29.944 
23:00	70.9	70.9	70.9	86	66.5	0	0	---	0.00	29.945 
23:05	70.9	70.9	70.9	86	66.5	0	0	---	0.00	29.945 
23:10	70.9	70.9	70.9	86	66.5	0	0	---	0.00	29.945 
23:15	70.9	70.9	70.9	86	66.5	0	0	---	0.00	29.938 
23:20	70.9	70.9	70.9	86	66.5	0	0	---	0.00	29.938 
23:25	70.8	70.8	70.8	86	66.4	0	0	---	0.00	29.938 
23:30	70.8	70.8	70.8	86	66.4	0	0	---	0.00	29.939 
23:35	70.8	70.8	70.8	86	66.4	0	0	---	0.00	29.939 
23:40	70.8	70.8	70.8	86	66.4	0	0	---	0.00	29.939 
23:45	70.8	70.8	70.8	86	66.4	0	0	---	0.00	29.937 
23:50	70.8	70.8	70.8	86	66.4	0	0	---	0.00	29.937 
23:55	70.6	70.6	70.6	86	66.2	0	2	90	0.00	29.937 

CoCoRaHS
IN-AL-39
A2 Web Hosting
Creative Commons License
GoDaddy
search engine by freefind advanced

loaded 2018-11-15 05:45:38 • last modified 2010-11-18 10:43:29
Privacy PolicyDisclaimer
• wx.awcolley.com is powered by PmWiki v.2002016 •
• all content (unless otherwise noted) © 2018 A W Colley